Terminal Aerodrome Forecast
Issued by NWS

Home | Current Version | Previous Version | Text Only | Print | Product List | Glossary On
Versions: 1 2 3 4 5 6 7 8 9 10 11 12 13 14 15
000
FTUS45 KREV 251737
TAFTVL
TAF
KTVL 251737Z 2518/2618 03006KT P6SM VCSH SCT030 BKN060
     FM252200 19009KT P6SM VCTS BKN030CB OVC050
     FM260100 19009KT P6SM VCSH BKN030 OVC050
     FM260400 VRB03KT P6SM BKN060=

USA.gov is the U.S. government's official web portal to all federal, state and local government web resources and services.